createdAt,value
2022-09-18T00:01:58.695Z,100.00
2022-09-18T00:06:15.332Z,100.00
2022-09-18T00:10:28.582Z,100.00
2022-09-18T00:14:41.840Z,100.00
2022-09-18T00:18:54.979Z,100.00
2022-09-18T00:23:08.007Z,100.00
2022-09-18T00:27:28.857Z,100.00
2022-09-18T00:31:42.440Z,100.00
2022-09-18T00:35:56.041Z,100.00
2022-09-18T00:40:11.789Z,100.00
2022-09-18T00:44:30.703Z,100.00
2022-09-18T00:49:03.877Z,100.00
2022-09-18T00:53:17.220Z,100.00
2022-09-18T00:57:33.801Z,100.00
2022-09-18T01:01:46.879Z,100.00
2022-09-18T01:06:10.266Z,100.00
2022-09-18T01:10:47.886Z,100.00
2022-09-18T01:15:16.484Z,100.00
2022-09-18T01:20:08.463Z,100.00
2022-09-18T01:24:43.236Z,100.00
2022-09-18T01:28:56.238Z,100.00
2022-09-18T01:33:44.934Z,100.00
2022-09-18T01:38:16.979Z,100.00
2022-09-18T01:42:33.340Z,100.00
2022-09-18T01:46:46.932Z,100.00
2022-09-18T01:51:32.818Z,100.00
2022-09-18T01:56:05.263Z,100.00
2022-09-18T02:00:19.407Z,100.00
2022-09-18T02:04:36.771Z,100.00
2022-09-18T02:08:56.043Z,100.00
2022-09-18T02:13:12.050Z,100.00
2022-09-18T02:17:43.821Z,100.00
2022-09-18T02:22:00.187Z,100.00
2022-09-18T02:26:15.376Z,100.00
2022-09-18T02:30:29.881Z,100.00
2022-09-18T02:34:53.188Z,100.00
2022-09-18T02:39:36.717Z,100.00
2022-09-18T02:43:58.060Z,100.00
2022-09-18T02:48:32.757Z,100.00
2022-09-18T02:53:09.482Z,100.00
2022-09-18T02:57:39.624Z,100.00
2022-09-18T03:01:54.863Z,100.00
2022-09-18T03:06:08.833Z,100.00
2022-09-18T03:10:22.056Z,100.00
2022-09-18T03:14:36.096Z,100.00
2022-09-18T03:18:49.388Z,100.00
2022-09-18T03:23:02.500Z,100.00
2022-09-18T03:27:18.072Z,100.00
2022-09-18T03:31:31.478Z,100.00
2022-09-18T03:35:44.950Z,100.00
2022-09-18T03:39:58.086Z,100.00
2022-09-18T03:44:11.324Z,100.00
2022-09-18T03:48:24.680Z,100.00
2022-09-18T03:52:37.902Z,100.00
2022-09-18T03:56:50.992Z,100.00
2022-09-18T04:01:04.814Z,100.00
2022-09-18T04:05:18.309Z,100.00
2022-09-18T04:09:32.809Z,100.00
2022-09-18T04:13:45.901Z,100.00
2022-09-18T04:17:59.074Z,100.00
2022-09-18T04:22:12.224Z,100.00
2022-09-18T04:26:27.192Z,100.00
2022-09-18T04:30:40.425Z,100.00
2022-09-18T04:34:53.479Z,100.00
2022-09-18T04:39:06.487Z,100.00
2022-09-18T04:43:21.254Z,100.00
2022-09-18T04:47:34.272Z,100.00
2022-09-18T04:51:47.463Z,100.00
2022-09-18T04:56:00.460Z,100.00
2022-09-18T05:00:13.779Z,100.00
2022-09-18T05:04:26.972Z,100.00
2022-09-18T05:08:40.462Z,100.00
2022-09-18T05:12:53.774Z,100.00
2022-09-18T05:17:08.347Z,100.00
2022-09-18T05:21:21.602Z,100.00
2022-09-18T05:25:34.796Z,100.00
2022-09-18T05:29:48.604Z,100.00
2022-09-18T05:34:02.017Z,100.00
2022-09-18T05:38:15.321Z,100.00
2022-09-18T05:42:29.102Z,100.00
2022-09-18T05:46:42.461Z,100.00
2022-09-18T05:50:56.856Z,100.00
2022-09-18T05:55:10.504Z,100.00
2022-09-18T05:59:23.510Z,100.00
2022-09-18T06:03:36.753Z,100.00
2022-09-18T06:07:50.964Z,100.00
2022-09-18T06:12:04.058Z,100.00
2022-09-18T06:16:17.505Z,100.00
2022-09-18T06:20:30.930Z,100.00
2022-09-18T06:24:43.994Z,100.00
2022-09-18T06:28:57.272Z,100.00
2022-09-18T06:33:11.327Z,100.00
2022-09-18T06:37:24.870Z,100.00
2022-09-18T06:41:38.066Z,100.00
2022-09-18T06:45:53.218Z,100.00
2022-09-18T06:50:08.824Z,100.00
2022-09-18T06:54:22.043Z,100.00
2022-09-18T06:58:36.117Z,100.00
2022-09-18T07:02:58.983Z,100.00
2022-09-18T07:07:12.204Z,100.00
2022-09-18T07:11:25.256Z,100.00
2022-09-18T07:15:38.464Z,100.00
2022-09-18T07:19:51.469Z,100.00
2022-09-18T07:24:04.703Z,100.00
2022-09-18T07:28:17.899Z,100.00
2022-09-18T07:32:30.995Z,100.00
2022-09-18T07:36:44.435Z,100.00
2022-09-18T07:40:57.634Z,100.00
2022-09-18T07:45:10.917Z,100.00
2022-09-18T07:49:24.065Z,100.00
2022-09-18T07:53:38.396Z,100.00
2022-09-18T07:57:58.477Z,100.00
2022-09-18T08:02:12.351Z,100.00
2022-09-18T08:06:25.449Z,100.00
2022-09-18T08:10:38.607Z,100.00
2022-09-18T08:14:54.948Z,100.00
2022-09-18T08:19:08.425Z,100.00
2022-09-18T08:23:21.572Z,100.00
2022-09-18T08:27:42.575Z,100.00
2022-09-18T08:31:56.039Z,100.00
2022-09-18T08:36:09.364Z,100.00
2022-09-18T08:40:35.293Z,100.00
2022-09-18T08:44:56.600Z,100.00
2022-09-18T08:49:24.413Z,100.00
2022-09-18T08:53:43.122Z,100.00
2022-09-18T08:58:02.234Z,100.00
2022-09-18T09:02:25.366Z,100.00
2022-09-18T09:06:57.138Z,100.00
2022-09-18T09:11:31.745Z,100.00
2022-09-18T09:15:52.797Z,100.00
2022-09-18T09:20:19.734Z,100.00
2022-09-18T09:24:50.983Z,100.00
2022-09-18T09:29:15.384Z,100.00
2022-09-18T09:33:40.205Z,100.00
2022-09-18T09:37:54.448Z,100.00
2022-09-18T09:42:27.836Z,100.00
2022-09-18T09:46:44.473Z,100.00
2022-09-18T09:51:05.583Z,100.00
2022-09-18T09:55:28.485Z,100.00
2022-09-18T10:00:05.768Z,100.00
2022-09-18T10:04:24.737Z,100.00
2022-09-18T10:09:10.238Z,100.00
2022-09-18T10:13:28.924Z,100.00
2022-09-18T10:17:43.199Z,100.00
2022-09-18T10:22:09.195Z,100.00
2022-09-18T10:26:37.496Z,100.00
2022-09-18T10:31:02.481Z,100.00
2022-09-18T10:35:30.603Z,100.00
2022-09-18T10:39:54.844Z,100.00
2022-09-18T10:44:08.045Z,100.00
2022-09-18T10:48:25.838Z,100.00
2022-09-18T10:52:41.167Z,100.00
2022-09-18T10:56:54.227Z,100.00
2022-09-18T11:01:09.752Z,100.00
2022-09-18T11:05:36.736Z,100.00
2022-09-18T11:09:51.319Z,100.00
2022-09-18T11:14:24.133Z,100.00
2022-09-18T11:18:38.416Z,100.00
2022-09-18T11:22:52.231Z,100.00
2022-09-18T11:27:22.401Z,100.00
2022-09-18T11:31:44.051Z,100.00
2022-09-18T11:36:08.746Z,100.00
2022-09-18T11:40:34.413Z,100.00
2022-09-18T11:44:48.791Z,100.00
2022-09-18T11:49:08.272Z,100.00
2022-09-18T11:53:25.749Z,100.00
2022-09-18T11:57:44.540Z,100.00
2022-09-18T12:02:02.613Z,100.00
2022-09-18T12:06:29.792Z,100.00
2022-09-18T12:10:53.580Z,100.00
2022-09-18T12:15:17.041Z,100.00
2022-09-18T12:19:41.552Z,100.00
2022-09-18T12:23:54.615Z,100.00
2022-09-18T12:28:28.967Z,100.00
2022-09-18T12:33:01.069Z,100.00
2022-09-18T12:37:46.427Z,100.00
2022-09-18T12:42:25.831Z,100.00
2022-09-18T12:47:00.416Z,100.00
2022-09-18T12:51:42.103Z,100.00
2022-09-18T12:56:27.798Z,100.00
2022-09-18T13:00:44.009Z,100.00
2022-09-18T13:05:16.015Z,100.00
2022-09-18T13:09:40.778Z,100.00
2022-09-18T13:14:00.186Z,100.00
2022-09-18T13:18:26.653Z,100.00
2022-09-18T13:22:41.135Z,100.00
2022-09-18T13:26:55.672Z,100.00
2022-09-18T13:31:28.642Z,100.00
2022-09-18T13:35:42.096Z,100.00
2022-09-18T13:40:10.541Z,100.00
2022-09-18T13:44:26.341Z,100.00
2022-09-18T13:48:47.674Z,100.00
2022-09-18T13:53:31.960Z,98.71
2022-09-18T13:57:45.571Z,97.75
2022-09-18T14:02:05.500Z,96.63
2022-09-18T14:06:43.339Z,96.47
2022-09-18T14:11:14.656Z,95.49
2022-09-18T14:15:28.781Z,97.41
2022-09-18T14:19:50.843Z,97.40
2022-09-18T14:24:27.166Z,100.00
2022-09-18T14:28:47.926Z,98.99
2022-09-18T14:33:21.461Z,95.26
2022-09-18T14:37:36.995Z,97.85
2022-09-18T14:41:52.153Z,95.27
2022-09-18T14:46:07.518Z,96.19
2022-09-18T14:50:35.782Z,97.97
2022-09-18T14:54:50.599Z,95.18
2022-09-18T14:59:09.295Z,96.49
2022-09-18T15:03:30.039Z,100.00
2022-09-18T15:07:52.597Z,97.75
2022-09-18T15:12:15.698Z,100.00
2022-09-18T15:16:31.392Z,98.92
2022-09-18T15:20:51.284Z,96.20
2022-09-18T15:25:04.526Z,97.42
2022-09-18T15:29:43.654Z,96.70
2022-09-18T15:34:17.634Z,95.38
2022-09-18T15:38:46.324Z,96.67
2022-09-18T15:43:05.018Z,95.33
2022-09-18T15:47:28.967Z,100.00
2022-09-18T15:51:42.153Z,100.00
2022-09-18T15:56:01.708Z,100.00
2022-09-18T16:00:20.060Z,100.00
2022-09-18T16:04:36.238Z,100.00
2022-09-18T16:08:54.909Z,100.00
2022-09-18T16:13:13.706Z,100.00
2022-09-18T16:17:31.267Z,100.00
2022-09-18T16:21:46.965Z,100.00
2022-09-18T16:26:14.680Z,100.00
2022-09-18T16:30:28.556Z,100.00
2022-09-18T16:34:42.471Z,100.00
2022-09-18T16:38:57.492Z,100.00
2022-09-18T16:43:11.498Z,100.00
2022-09-18T16:47:26.473Z,100.00
2022-09-18T16:51:49.735Z,100.00
2022-09-18T16:56:05.283Z,100.00
2022-09-18T17:00:18.772Z,100.00
2022-09-18T17:04:32.651Z,100.00
2022-09-18T17:08:46.881Z,100.00
2022-09-18T17:13:00.390Z,100.00
2022-09-18T17:17:14.328Z,100.00
2022-09-18T17:21:27.540Z,100.00
2022-09-18T17:25:41.360Z,100.00
2022-09-18T17:29:55.285Z,100.00
2022-09-18T17:34:08.446Z,100.00
2022-09-18T17:38:21.542Z,100.00
2022-09-18T17:42:34.665Z,100.00
2022-09-18T17:46:52.043Z,100.00
2022-09-18T17:51:12.756Z,100.00
2022-09-18T17:55:25.824Z,100.00
2022-09-18T17:59:44.062Z,100.00
2022-09-18T18:03:58.822Z,100.00
2022-09-18T18:08:11.842Z,100.00
2022-09-18T18:12:24.876Z,100.00
2022-09-18T18:16:38.171Z,100.00
2022-09-18T18:20:52.009Z,100.00
2022-09-18T18:25:06.804Z,100.00
2022-09-18T18:29:20.229Z,100.00
2022-09-18T18:33:37.101Z,100.00
2022-09-18T18:37:50.200Z,100.00
2022-09-18T18:42:03.775Z,100.00
2022-09-18T18:46:16.842Z,100.00
2022-09-18T18:50:33.466Z,100.00
2022-09-18T18:54:46.731Z,100.00
2022-09-18T18:59:02.362Z,100.00
2022-09-18T19:03:15.780Z,100.00
2022-09-18T19:07:30.444Z,100.00
2022-09-18T19:11:45.116Z,100.00
2022-09-18T19:16:03.549Z,100.00
2022-09-18T19:20:16.763Z,100.00
2022-09-18T19:24:30.995Z,100.00
2022-09-18T19:28:50.843Z,100.00
2022-09-18T19:33:07.328Z,100.00
2022-09-18T19:37:20.756Z,100.00
2022-09-18T19:41:53.264Z,100.00
2022-09-18T19:46:13.381Z,100.00
2022-09-18T19:50:30.495Z,100.00
2022-09-18T19:54:45.932Z,100.00
2022-09-18T19:58:59.521Z,100.00
2022-09-18T20:03:13.091Z,100.00
2022-09-18T20:07:26.203Z,100.00
2022-09-18T20:11:39.364Z,100.00
2022-09-18T20:16:01.558Z,100.00
2022-09-18T20:20:16.603Z,100.00
2022-09-18T20:24:31.860Z,100.00
2022-09-18T20:28:45.690Z,100.00
2022-09-18T20:32:58.904Z,100.00
2022-09-18T20:37:13.614Z,100.00
2022-09-18T20:41:28.858Z,100.00
2022-09-18T20:45:42.313Z,100.00
2022-09-18T20:49:55.597Z,100.00
2022-09-18T20:54:08.908Z,100.00
2022-09-18T20:58:22.071Z,100.00
2022-09-18T21:02:38.560Z,100.00
2022-09-18T21:06:56.874Z,100.00
2022-09-18T21:11:11.302Z,100.00
2022-09-18T21:15:26.126Z,100.00
2022-09-18T21:19:39.557Z,100.00
2022-09-18T21:23:57.077Z,100.00
2022-09-18T21:28:10.432Z,100.00
2022-09-18T21:32:23.830Z,100.00
2022-09-18T21:36:39.350Z,100.00
2022-09-18T21:40:52.549Z,100.00
2022-09-18T21:45:05.998Z,100.00
2022-09-18T21:49:19.955Z,100.00
2022-09-18T21:53:44.635Z,100.00
2022-09-18T21:57:58.059Z,100.00
2022-09-18T22:02:12.503Z,100.00
2022-09-18T22:06:39.418Z,100.00
2022-09-18T22:10:55.059Z,100.00
2022-09-18T22:15:08.688Z,100.00
2022-09-18T22:19:21.984Z,100.00
2022-09-18T22:23:45.555Z,100.00
2022-09-18T22:28:00.422Z,100.00
2022-09-18T22:32:24.988Z,100.00
2022-09-18T22:36:38.079Z,100.00
2022-09-18T22:40:51.216Z,100.00
2022-09-18T22:45:05.957Z,100.00
2022-09-18T22:49:19.634Z,100.00
2022-09-18T22:53:34.039Z,100.00
2022-09-18T22:57:47.357Z,100.00
2022-09-18T23:02:04.457Z,100.00
2022-09-18T23:06:20.697Z,100.00
2022-09-18T23:10:35.782Z,100.00
2022-09-18T23:14:48.834Z,100.00
2022-09-18T23:19:04.767Z,100.00
2022-09-18T23:23:17.935Z,100.00
2022-09-18T23:27:31.232Z,100.00
2022-09-18T23:31:46.652Z,100.00
2022-09-18T23:36:15.646Z,100.00
2022-09-18T23:40:28.805Z,100.00
2022-09-18T23:44:41.852Z,100.00
2022-09-18T23:48:58.510Z,100.00
2022-09-18T23:53:11.826Z,100.00
2022-09-18T23:57:27.151Z,100.00
